sensor_id;sensor_type;location;lat;lon;timestamp;P1;durP1;ratioP1;P2;durP2;ratioP2
55140;SDS011;41035;44.280;19.870;2022-09-27T00:01:12;27.27;;;15.80;;
55140;SDS011;41035;44.280;19.870;2022-09-27T00:03:39;22.77;;;15.98;;
55140;SDS011;41035;44.280;19.870;2022-09-27T00:08:32;17.85;;;13.00;;
55140;SDS011;41035;44.280;19.870;2022-09-27T00:11:22;23.98;;;16.58;;
55140;SDS011;41035;44.280;19.870;2022-09-27T00:13:45;43.28;;;26.17;;
55140;SDS011;41035;44.280;19.870;2022-09-27T00:16:11;38.28;;;23.88;;
55140;SDS011;41035;44.280;19.870;2022-09-27T00:18:37;25.40;;;17.95;;
55140;SDS011;41035;44.280;19.870;2022-09-27T00:21:07;22.88;;;15.75;;
55140;SDS011;41035;44.280;19.870;2022-09-27T00:23:34;21.15;;;14.80;;
55140;SDS011;41035;44.280;19.870;2022-09-27T00:26:00;16.88;;;13.15;;
55140;SDS011;41035;44.280;19.870;2022-09-27T00:28:26;17.45;;;12.77;;
55140;SDS011;41035;44.280;19.870;2022-09-27T00:30:52;18.42;;;12.75;;
55140;SDS011;41035;44.280;19.870;2022-09-27T00:33:19;16.83;;;12.18;;
55140;SDS011;41035;44.280;19.870;2022-09-27T00:35:45;17.13;;;12.25;;
55140;SDS011;41035;44.280;19.870;2022-09-27T00:38:11;17.65;;;11.82;;
55140;SDS011;41035;44.280;19.870;2022-09-27T00:40:37;19.73;;;12.55;;
55140;SDS011;41035;44.280;19.870;2022-09-27T00:43:17;16.25;;;11.70;;
55140;SDS011;41035;44.280;19.870;2022-09-27T00:45:45;13.88;;;11.55;;
55140;SDS011;41035;44.280;19.870;2022-09-27T00:50:39;13.18;;;11.27;;
55140;SDS011;41035;44.280;19.870;2022-09-27T00:53:13;12.55;;;10.52;;
55140;SDS011;41035;44.280;19.870;2022-09-27T00:55:42;13.95;;;10.15;;
55140;SDS011;41035;44.280;19.870;2022-09-27T00:58:10;18.70;;;12.52;;
55140;SDS011;41035;44.280;19.870;2022-09-27T01:00:37;12.48;;;9.93;;
55140;SDS011;41035;44.280;19.870;2022-09-27T01:03:06;12.40;;;10.02;;
55140;SDS011;41035;44.280;19.870;2022-09-27T01:05:35;11.13;;;9.23;;
55140;SDS011;41035;44.280;19.870;2022-09-27T01:08:01;14.20;;;10.13;;
55140;SDS011;41035;44.280;19.870;2022-09-27T01:10:29;12.10;;;9.23;;
55140;SDS011;41035;44.280;19.870;2022-09-27T01:12:59;11.38;;;9.15;;
55140;SDS011;41035;44.280;19.870;2022-09-27T01:15:33;10.60;;;9.50;;
55140;SDS011;41035;44.280;19.870;2022-09-27T01:23:37;28.40;;;17.92;;
55140;SDS011;41035;44.280;19.870;2022-09-27T01:36:27;15.07;;;11.35;;
55140;SDS011;41035;44.280;19.870;2022-09-27T01:39:08;11.55;;;9.95;;
55140;SDS011;41035;44.280;19.870;2022-09-27T01:41:45;12.13;;;10.13;;
55140;SDS011;41035;44.280;19.870;2022-09-27T01:44:19;11.43;;;9.60;;
55140;SDS011;41035;44.280;19.870;2022-09-27T01:46:51;12.02;;;10.43;;
55140;SDS011;41035;44.280;19.870;2022-09-27T01:49:19;10.20;;;9.20;;
55140;SDS011;41035;44.280;19.870;2022-09-27T01:51:50;10.88;;;9.63;;
55140;SDS011;41035;44.280;19.870;2022-09-27T01:54:22;11.77;;;9.75;;
55140;SDS011;41035;44.280;19.870;2022-09-27T01:56:52;16.40;;;9.90;;
55140;SDS011;41035;44.280;19.870;2022-09-27T01:59:27;11.27;;;10.02;;
55140;SDS011;41035;44.280;19.870;2022-09-27T02:01:56;12.90;;;10.85;;
55140;SDS011;41035;44.280;19.870;2022-09-27T02:04:25;14.32;;;10.25;;
55140;SDS011;41035;44.280;19.870;2022-09-27T02:06:53;16.83;;;9.93;;
55140;SDS011;41035;44.280;19.870;2022-09-27T02:11:57;10.80;;;9.43;;
55140;SDS011;41035;44.280;19.870;2022-09-27T02:14:33;15.52;;;11.63;;
55140;SDS011;41035;44.280;19.870;2022-09-27T02:17:15;13.50;;;10.70;;
55140;SDS011;41035;44.280;19.870;2022-09-27T02:25:42;14.85;;;9.60;;
55140;SDS011;41035;44.280;19.870;2022-09-27T02:30:53;18.85;;;14.13;;
55140;SDS011;41035;44.280;19.870;2022-09-27T02:33:21;17.83;;;14.30;;
55140;SDS011;41035;44.280;19.870;2022-09-27T02:35:48;13.98;;;10.57;;
55140;SDS011;41035;44.280;19.870;2022-09-27T02:38:14;13.50;;;11.90;;
55140;SDS011;41035;44.280;19.870;2022-09-27T02:40:44;15.25;;;11.60;;
55140;SDS011;41035;44.280;19.870;2022-09-27T02:43:10;13.98;;;12.10;;
55140;SDS011;41035;44.280;19.870;2022-09-27T02:58:51;11.35;;;9.60;;
55140;SDS011;41035;44.280;19.870;2022-09-27T03:01:32;11.88;;;10.40;;
55140;SDS011;41035;44.280;19.870;2022-09-27T03:04:24;14.15;;;10.93;;
55140;SDS011;41035;44.280;19.870;2022-09-27T03:06:47;13.73;;;9.50;;
55140;SDS011;41035;44.280;19.870;2022-09-27T03:09:18;12.50;;;9.40;;
55140;SDS011;41035;44.280;19.870;2022-09-27T03:11:44;10.60;;;8.80;;
55140;SDS011;41035;44.280;19.870;2022-09-27T03:14:10;12.85;;;9.77;;
55140;SDS011;41035;44.280;19.870;2022-09-27T03:16:37;12.10;;;9.50;;
55140;SDS011;41035;44.280;19.870;2022-09-27T03:19:03;13.55;;;10.60;;
55140;SDS011;41035;44.280;19.870;2022-09-27T03:21:29;12.77;;;10.25;;
55140;SDS011;41035;44.280;19.870;2022-09-27T03:23:55;16.25;;;11.32;;
55140;SDS011;41035;44.280;19.870;2022-09-27T03:26:21;13.77;;;11.38;;
55140;SDS011;41035;44.280;19.870;2022-09-27T03:28:47;12.48;;;11.00;;
55140;SDS011;41035;44.280;19.870;2022-09-27T03:31:13;13.60;;;10.82;;
55140;SDS011;41035;44.280;19.870;2022-09-27T03:33:39;15.10;;;11.30;;
55140;SDS011;41035;44.280;19.870;2022-09-27T03:36:06;22.10;;;11.95;;
55140;SDS011;41035;44.280;19.870;2022-09-27T03:38:32;14.10;;;11.18;;
55140;SDS011;41035;44.280;19.870;2022-09-27T03:40:58;19.38;;;12.25;;
55140;SDS011;41035;44.280;19.870;2022-09-27T03:43:24;18.50;;;12.15;;
55140;SDS011;41035;44.280;19.870;2022-09-27T03:45:50;15.15;;;11.80;;
55140;SDS011;41035;44.280;19.870;2022-09-27T03:48:16;14.57;;;11.05;;
55140;SDS011;41035;44.280;19.870;2022-09-27T03:50:42;14.48;;;11.02;;
55140;SDS011;41035;44.280;19.870;2022-09-27T03:53:08;15.35;;;10.65;;
55140;SDS011;41035;44.280;19.870;2022-09-27T03:55:35;13.63;;;11.27;;
55140;SDS011;41035;44.280;19.870;2022-09-27T03:58:01;13.52;;;10.77;;
55140;SDS011;41035;44.280;19.870;2022-09-27T04:00:27;12.13;;;9.65;;
55140;SDS011;41035;44.280;19.870;2022-09-27T04:02:56;13.45;;;10.10;;
55140;SDS011;41035;44.280;19.870;2022-09-27T04:05:26;12.30;;;8.98;;
55140;SDS011;41035;44.280;19.870;2022-09-27T04:07:52;15.68;;;9.35;;
55140;SDS011;41035;44.280;19.870;2022-09-27T04:10:19;10.30;;;8.55;;
55140;SDS011;41035;44.280;19.870;2022-09-27T04:12:45;14.88;;;9.10;;
55140;SDS011;41035;44.280;19.870;2022-09-27T04:15:11;11.02;;;9.45;;
55140;SDS011;41035;44.280;19.870;2022-09-27T04:17:39;19.77;;;12.00;;
55140;SDS011;41035;44.280;19.870;2022-09-27T04:20:06;25.48;;;12.13;;
55140;SDS011;41035;44.280;19.870;2022-09-27T04:22:33;19.77;;;10.27;;
55140;SDS011;41035;44.280;19.870;2022-09-27T04:24:59;16.85;;;10.02;;
55140;SDS011;41035;44.280;19.870;2022-09-27T04:27:25;16.08;;;8.77;;
55140;SDS011;41035;44.280;19.870;2022-09-27T04:29:55;15.70;;;8.70;;
55140;SDS011;41035;44.280;19.870;2022-09-27T04:32:21;20.45;;;9.00;;
55140;SDS011;41035;44.280;19.870;2022-09-27T04:34:47;11.25;;;7.13;;
55140;SDS011;41035;44.280;19.870;2022-09-27T04:37:32;14.85;;;7.85;;
55140;SDS011;41035;44.280;19.870;2022-09-27T04:39:58;14.52;;;7.10;;
55140;SDS011;41035;44.280;19.870;2022-09-27T04:42:24;13.52;;;7.32;;
55140;SDS011;41035;44.280;19.870;2022-09-27T04:44:50;12.13;;;7.60;;
55140;SDS011;41035;44.280;19.870;2022-09-27T04:47:16;10.13;;;6.75;;
55140;SDS011;41035;44.280;19.870;2022-09-27T04:49:45;18.63;;;7.50;;
55140;SDS011;41035;44.280;19.870;2022-09-27T04:52:11;13.02;;;6.85;;
55140;SDS011;41035;44.280;19.870;2022-09-27T04:54:38;27.95;;;8.13;;
55140;SDS011;41035;44.280;19.870;2022-09-27T04:57:04;13.68;;;7.45;;
55140;SDS011;41035;44.280;19.870;2022-09-27T04:59:30;11.65;;;7.45;;
55140;SDS011;41035;44.280;19.870;2022-09-27T05:01:56;9.73;;;6.47;;
55140;SDS011;41035;44.280;19.870;2022-09-27T05:04:26;11.13;;;6.78;;
55140;SDS011;41035;44.280;19.870;2022-09-27T05:06:52;7.18;;;6.22;;
55140;SDS011;41035;44.280;19.870;2022-09-27T05:09:18;9.85;;;6.70;;
55140;SDS011;41035;44.280;19.870;2022-09-27T05:11:44;10.40;;;7.63;;
55140;SDS011;41035;44.280;19.870;2022-09-27T05:14:10;14.25;;;8.00;;
55140;SDS011;41035;44.280;19.870;2022-09-27T05:16:38;17.08;;;9.80;;
55140;SDS011;41035;44.280;19.870;2022-09-27T05:19:04;18.40;;;9.27;;
55140;SDS011;41035;44.280;19.870;2022-09-27T05:21:30;15.45;;;7.70;;
55140;SDS011;41035;44.280;19.870;2022-09-27T05:23:56;15.10;;;8.10;;
55140;SDS011;41035;44.280;19.870;2022-09-27T05:26:23;15.50;;;8.77;;
55140;SDS011;41035;44.280;19.870;2022-09-27T05:28:49;16.75;;;10.68;;
55140;SDS011;41035;44.280;19.870;2022-09-27T05:31:16;18.13;;;10.43;;
55140;SDS011;41035;44.280;19.870;2022-09-27T05:33:42;18.20;;;7.68;;
55140;SDS011;41035;44.280;19.870;2022-09-27T05:36:09;10.63;;;7.15;;
55140;SDS011;41035;44.280;19.870;2022-09-27T05:38:36;12.75;;;8.50;;
55140;SDS011;41035;44.280;19.870;2022-09-27T05:41:02;11.63;;;8.00;;
55140;SDS011;41035;44.280;19.870;2022-09-27T05:43:29;14.38;;;8.23;;
55140;SDS011;41035;44.280;19.870;2022-09-27T05:45:55;13.13;;;8.20;;
55140;SDS011;41035;44.280;19.870;2022-09-27T05:48:22;8.85;;;6.97;;
55140;SDS011;41035;44.280;19.870;2022-09-27T05:50:48;15.23;;;10.30;;
55140;SDS011;41035;44.280;19.870;2022-09-27T05:53:15;16.88;;;12.70;;
55140;SDS011;41035;44.280;19.870;2022-09-27T05:55:41;19.35;;;12.70;;
55140;SDS011;41035;44.280;19.870;2022-09-27T05:58:08;21.63;;;12.75;;
55140;SDS011;41035;44.280;19.870;2022-09-27T06:00:36;29.63;;;15.17;;
55140;SDS011;41035;44.280;19.870;2022-09-27T06:03:03;19.70;;;11.68;;
55140;SDS011;41035;44.280;19.870;2022-09-27T06:05:30;15.80;;;7.75;;
55140;SDS011;41035;44.280;19.870;2022-09-27T06:08:00;13.23;;;8.23;;
55140;SDS011;41035;44.280;19.870;2022-09-27T06:10:27;10.13;;;6.55;;
55140;SDS011;41035;44.280;19.870;2022-09-27T06:12:57;9.10;;;5.75;;
55140;SDS011;41035;44.280;19.870;2022-09-27T06:15:23;8.88;;;6.20;;
55140;SDS011;41035;44.280;19.870;2022-09-27T06:17:49;10.30;;;7.15;;
55140;SDS011;41035;44.280;19.870;2022-09-27T06:20:16;10.55;;;7.03;;
55140;SDS011;41035;44.280;19.870;2022-09-27T06:22:42;15.32;;;8.82;;
55140;SDS011;41035;44.280;19.870;2022-09-27T06:25:10;14.02;;;8.63;;
55140;SDS011;41035;44.280;19.870;2022-09-27T06:27:36;18.98;;;9.05;;
55140;SDS011;41035;44.280;19.870;2022-09-27T06:30:03;14.27;;;9.20;;
55140;SDS011;41035;44.280;19.870;2022-09-27T06:32:30;14.48;;;8.77;;
55140;SDS011;41035;44.280;19.870;2022-09-27T06:34:56;13.85;;;9.57;;
55140;SDS011;41035;44.280;19.870;2022-09-27T06:37:27;14.57;;;10.82;;
55140;SDS011;41035;44.280;19.870;2022-09-27T06:39:53;20.45;;;13.77;;
55140;SDS011;41035;44.280;19.870;2022-09-27T06:42:20;17.88;;;12.98;;
55140;SDS011;41035;44.280;19.870;2022-09-27T06:44:46;15.27;;;10.65;;
55140;SDS011;41035;44.280;19.870;2022-09-27T06:47:13;13.75;;;9.05;;
55140;SDS011;41035;44.280;19.870;2022-09-27T06:49:40;12.07;;;8.73;;
55140;SDS011;41035;44.280;19.870;2022-09-27T06:52:06;13.65;;;9.07;;
55140;SDS011;41035;44.280;19.870;2022-09-27T06:54:33;12.68;;;8.85;;
55140;SDS011;41035;44.280;19.870;2022-09-27T06:56:59;15.85;;;10.93;;
55140;SDS011;41035;44.280;19.870;2022-09-27T06:59:26;15.52;;;11.15;;
55140;SDS011;41035;44.280;19.870;2022-09-27T07:02:11;17.77;;;12.10;;
55140;SDS011;41035;44.280;19.870;2022-09-27T07:04:38;20.35;;;12.07;;
55140;SDS011;41035;44.280;19.870;2022-09-27T07:07:05;19.10;;;12.55;;
55140;SDS011;41035;44.280;19.870;2022-09-27T07:09:34;17.55;;;11.73;;
55140;SDS011;41035;44.280;19.870;2022-09-27T07:12:02;16.88;;;10.65;;
55140;SDS011;41035;44.280;19.870;2022-09-27T07:14:29;17.63;;;10.23;;
55140;SDS011;41035;44.280;19.870;2022-09-27T07:17:00;31.58;;;22.05;;
55140;SDS011;41035;44.280;19.870;2022-09-27T07:19:26;35.33;;;21.48;;
55140;SDS011;41035;44.280;19.870;2022-09-27T07:21:52;58.53;;;33.47;;
55140;SDS011;41035;44.280;19.870;2022-09-27T07:24:18;31.90;;;18.63;;
55140;SDS011;41035;44.280;19.870;2022-09-27T07:26:46;9.57;;;5.93;;
55140;SDS011;41035;44.280;19.870;2022-09-27T07:29:12;7.68;;;4.95;;
55140;SDS011;41035;44.280;19.870;2022-09-27T07:31:38;10.70;;;5.78;;
55140;SDS011;41035;44.280;19.870;2022-09-27T07:34:04;11.93;;;6.15;;
55140;SDS011;41035;44.280;19.870;2022-09-27T07:36:30;11.65;;;6.10;;
55140;SDS011;41035;44.280;19.870;2022-09-27T07:38:58;9.30;;;6.07;;
55140;SDS011;41035;44.280;19.870;2022-09-27T07:41:24;9.15;;;5.80;;
55140;SDS011;41035;44.280;19.870;2022-09-27T07:43:50;10.23;;;5.80;;
55140;SDS011;41035;44.280;19.870;2022-09-27T07:46:16;8.90;;;6.20;;
55140;SDS011;41035;44.280;19.870;2022-09-27T07:48:42;9.07;;;6.45;;
55140;SDS011;41035;44.280;19.870;2022-09-27T07:51:10;15.30;;;6.67;;
55140;SDS011;41035;44.280;19.870;2022-09-27T07:53:36;11.40;;;6.18;;
55140;SDS011;41035;44.280;19.870;2022-09-27T07:56:02;14.18;;;6.72;;
55140;SDS011;41035;44.280;19.870;2022-09-27T07:58:29;16.92;;;9.80;;
55140;SDS011;41035;44.280;19.870;2022-09-27T08:00:57;20.98;;;11.25;;
55140;SDS011;41035;44.280;19.870;2022-09-27T08:03:23;20.23;;;9.70;;
55140;SDS011;41035;44.280;19.870;2022-09-27T08:05:50;25.75;;;10.82;;
55140;SDS011;41035;44.280;19.870;2022-09-27T08:08:16;22.60;;;11.73;;
55140;SDS011;41035;44.280;19.870;2022-09-27T08:10:42;23.13;;;13.07;;
55140;SDS011;41035;44.280;19.870;2022-09-27T08:13:11;26.58;;;12.90;;
55140;SDS011;41035;44.280;19.870;2022-09-27T08:15:37;27.90;;;13.80;;
55140;SDS011;41035;44.280;19.870;2022-09-27T08:18:06;34.53;;;16.50;;
55140;SDS011;41035;44.280;19.870;2022-09-27T08:20:33;25.23;;;13.68;;
55140;SDS011;41035;44.280;19.870;2022-09-27T08:22:59;32.95;;;15.25;;
55140;SDS011;41035;44.280;19.870;2022-09-27T08:25:28;31.05;;;15.40;;
55140;SDS011;41035;44.280;19.870;2022-09-27T08:27:56;31.05;;;14.30;;
55140;SDS011;41035;44.280;19.870;2022-09-27T08:30:23;22.20;;;11.57;;
55140;SDS011;41035;44.280;19.870;2022-09-27T08:32:55;27.85;;;13.80;;
55140;SDS011;41035;44.280;19.870;2022-09-27T08:35:22;19.60;;;11.63;;
55140;SDS011;41035;44.280;19.870;2022-09-27T08:37:52;21.27;;;10.90;;
55140;SDS011;41035;44.280;19.870;2022-09-27T08:40:18;25.25;;;11.13;;
55140;SDS011;41035;44.280;19.870;2022-09-27T08:45:53;13.10;;;6.07;;
55140;SDS011;41035;44.280;19.870;2022-09-27T08:48:20;15.20;;;4.68;;
55140;SDS011;41035;44.280;19.870;2022-09-27T08:50:47;12.32;;;4.80;;
55140;SDS011;41035;44.280;19.870;2022-09-27T08:53:25;15.63;;;6.00;;
55140;SDS011;41035;44.280;19.870;2022-09-27T08:55:56;9.75;;;5.57;;
55140;SDS011;41035;44.280;19.870;2022-09-27T08:58:26;9.88;;;5.15;;
55140;SDS011;41035;44.280;19.870;2022-09-27T09:00:54;13.75;;;4.50;;
55140;SDS011;41035;44.280;19.870;2022-09-27T09:03:21;10.20;;;4.80;;
55140;SDS011;41035;44.280;19.870;2022-09-27T09:11:15;14.07;;;5.05;;
55140;SDS011;41035;44.280;19.870;2022-09-27T09:14:25;11.55;;;4.95;;
55140;SDS011;41035;44.280;19.870;2022-09-27T09:36:26;9.63;;;4.22;;
55140;SDS011;41035;44.280;19.870;2022-09-27T09:38:54;10.70;;;3.58;;
55140;SDS011;41035;44.280;19.870;2022-09-27T09:43:49;9.00;;;2.55;;
55140;SDS011;41035;44.280;19.870;2022-09-27T09:46:19;16.67;;;3.55;;
55140;SDS011;41035;44.280;19.870;2022-09-27T09:48:51;13.52;;;3.50;;
55140;SDS011;41035;44.280;19.870;2022-09-27T09:51:21;8.23;;;3.25;;
55140;SDS011;41035;44.280;19.870;2022-09-27T09:53:53;10.98;;;3.03;;
55140;SDS011;41035;44.280;19.870;2022-09-27T09:56:22;11.95;;;3.65;;
55140;SDS011;41035;44.280;19.870;2022-09-27T10:01:19;11.75;;;3.80;;
55140;SDS011;41035;44.280;19.870;2022-09-27T10:03:46;7.85;;;3.75;;
55140;SDS011;41035;44.280;19.870;2022-09-27T10:06:12;7.38;;;4.05;;
55140;SDS011;41035;44.280;19.870;2022-09-27T10:08:40;7.43;;;4.18;;
55140;SDS011;41035;44.280;19.870;2022-09-27T10:11:09;11.50;;;7.47;;
55140;SDS011;41035;44.280;19.870;2022-09-27T10:13:41;10.15;;;6.05;;
55140;SDS011;41035;44.280;19.870;2022-09-27T10:16:08;7.25;;;4.10;;
55140;SDS011;41035;44.280;19.870;2022-09-27T10:18:38;18.73;;;7.30;;
55140;SDS011;41035;44.280;19.870;2022-09-27T10:21:06;12.95;;;3.83;;
55140;SDS011;41035;44.280;19.870;2022-09-27T10:23:35;10.75;;;3.58;;
55140;SDS011;41035;44.280;19.870;2022-09-27T10:26:02;11.65;;;3.65;;
55140;SDS011;41035;44.280;19.870;2022-09-27T10:31:09;12.25;;;4.03;;
55140;SDS011;41035;44.280;19.870;2022-09-27T10:33:36;18.63;;;4.85;;
55140;SDS011;41035;44.280;19.870;2022-09-27T10:36:03;14.70;;;4.03;;
55140;SDS011;41035;44.280;19.870;2022-09-27T10:38:51;13.40;;;3.58;;
55140;SDS011;41035;44.280;19.870;2022-09-27T10:41:22;9.68;;;3.60;;
55140;SDS011;41035;44.280;19.870;2022-09-27T10:43:49;11.80;;;3.53;;
55140;SDS011;41035;44.280;19.870;2022-09-27T10:46:29;17.55;;;3.90;;
55140;SDS011;41035;44.280;19.870;2022-09-27T10:55:12;3.33;;;1.88;;
55140;SDS011;41035;44.280;19.870;2022-09-27T10:57:51;5.57;;;2.67;;
55140;SDS011;41035;44.280;19.870;2022-09-27T11:00:32;10.15;;;4.53;;
55140;SDS011;41035;44.280;19.870;2022-09-27T11:03:06;6.68;;;2.22;;
55140;SDS011;41035;44.280;19.870;2022-09-27T11:05:38;5.07;;;2.45;;
55140;SDS011;41035;44.280;19.870;2022-09-27T11:13:33;8.05;;;2.72;;
55140;SDS011;41035;44.280;19.870;2022-09-27T11:32:27;8.40;;;2.17;;
55140;SDS011;41035;44.280;19.870;2022-09-27T11:41:49;8.65;;;3.17;;
55140;SDS011;41035;44.280;19.870;2022-09-27T11:45:16;14.10;;;4.70;;
55140;SDS011;41035;44.280;19.870;2022-09-27T11:47:42;23.70;;;8.00;;
55140;SDS011;41035;44.280;19.870;2022-09-27T11:55:47;17.05;;;5.18;;
55140;SDS011;41035;44.280;19.870;2022-09-27T11:58:29;10.68;;;3.90;;
55140;SDS011;41035;44.280;19.870;2022-09-27T12:01:02;5.60;;;2.97;;
55140;SDS011;41035;44.280;19.870;2022-09-27T12:06:06;6.53;;;2.30;;
55140;SDS011;41035;44.280;19.870;2022-09-27T12:08:43;4.10;;;2.03;;
55140;SDS011;41035;44.280;19.870;2022-09-27T12:11:23;3.97;;;2.08;;
55140;SDS011;41035;44.280;19.870;2022-09-27T12:13:57;6.05;;;4.03;;
55140;SDS011;41035;44.280;19.870;2022-09-27T12:16:25;9.95;;;4.25;;
55140;SDS011;41035;44.280;19.870;2022-09-27T12:18:51;11.75;;;4.40;;
55140;SDS011;41035;44.280;19.870;2022-09-27T12:21:21;10.77;;;4.28;;
55140;SDS011;41035;44.280;19.870;2022-09-27T12:23:55;11.85;;;4.78;;
55140;SDS011;41035;44.280;19.870;2022-09-27T12:26:35;10.75;;;6.13;;
55140;SDS011;41035;44.280;19.870;2022-09-27T12:29:20;16.83;;;12.20;;
55140;SDS011;41035;44.280;19.870;2022-09-27T12:31:53;21.30;;;10.68;;
55140;SDS011;41035;44.280;19.870;2022-09-27T12:34:24;23.60;;;12.77;;
55140;SDS011;41035;44.280;19.870;2022-09-27T12:37:03;13.07;;;9.45;;
55140;SDS011;41035;44.280;19.870;2022-09-27T12:39:41;9.18;;;6.93;;
55140;SDS011;41035;44.280;19.870;2022-09-27T12:42:13;9.68;;;6.30;;
55140;SDS011;41035;44.280;19.870;2022-09-27T12:44:41;13.88;;;6.95;;
55140;SDS011;41035;44.280;19.870;2022-09-27T12:47:42;25.20;;;13.68;;
55140;SDS011;41035;44.280;19.870;2022-09-27T12:52:30;22.25;;;9.50;;
55140;SDS011;41035;44.280;19.870;2022-09-27T12:57:30;21.88;;;7.65;;
55140;SDS011;41035;44.280;19.870;2022-09-27T13:00:04;28.48;;;9.02;;
55140;SDS011;41035;44.280;19.870;2022-09-27T13:13:17;11.00;;;3.35;;
55140;SDS011;41035;44.280;19.870;2022-09-27T13:15:45;17.45;;;5.95;;
55140;SDS011;41035;44.280;19.870;2022-09-27T13:18:31;9.13;;;3.45;;
55140;SDS011;41035;44.280;19.870;2022-09-27T13:24:01;2.53;;;1.35;;
55140;SDS011;41035;44.280;19.870;2022-09-27T13:29:00;8.85;;;3.10;;
55140;SDS011;41035;44.280;19.870;2022-09-27T13:35:08;15.70;;;7.43;;
55140;SDS011;41035;44.280;19.870;2022-09-27T13:36:58;3.58;;;1.65;;
55140;SDS011;41035;44.280;19.870;2022-09-27T13:39:44;3.08;;;2.00;;
55140;SDS011;41035;44.280;19.870;2022-09-27T13:42:24;3.72;;;2.22;;
55140;SDS011;41035;44.280;19.870;2022-09-27T13:47:53;4.03;;;1.77;;
55140;SDS011;41035;44.280;19.870;2022-09-27T13:50:19;2.60;;;1.50;;
55140;SDS011;41035;44.280;19.870;2022-09-27T13:52:56;3.03;;;1.13;;
55140;SDS011;41035;44.280;19.870;2022-09-27T14:00:47;4.68;;;1.30;;
55140;SDS011;41035;44.280;19.870;2022-09-27T14:03:14;5.53;;;1.50;;
55140;SDS011;41035;44.280;19.870;2022-09-27T14:05:46;10.38;;;2.80;;
55140;SDS011;41035;44.280;19.870;2022-09-27T14:08:19;10.30;;;2.65;;
55140;SDS011;41035;44.280;19.870;2022-09-27T14:10:49;7.47;;;3.58;;
55140;SDS011;41035;44.280;19.870;2022-09-27T14:13:17;17.00;;;6.70;;
55140;SDS011;41035;44.280;19.870;2022-09-27T14:15:47;18.50;;;3.20;;
55140;SDS011;41035;44.280;19.870;2022-09-27T14:18:17;16.67;;;3.80;;
55140;SDS011;41035;44.280;19.870;2022-09-27T14:20:44;7.90;;;3.10;;
55140;SDS011;41035;44.280;19.870;2022-09-27T14:23:19;6.63;;;2.70;;
55140;SDS011;41035;44.280;19.870;2022-09-27T14:25:46;4.75;;;2.80;;
55140;SDS011;41035;44.280;19.870;2022-09-27T14:28:21;8.07;;;5.20;;
55140;SDS011;41035;44.280;19.870;2022-09-27T14:34:03;19.65;;;7.90;;
55140;SDS011;41035;44.280;19.870;2022-09-27T14:36:36;10.70;;;3.40;;
55140;SDS011;41035;44.280;19.870;2022-09-27T14:39:22;7.05;;;2.88;;
55140;SDS011;41035;44.280;19.870;2022-09-27T14:41:55;5.78;;;2.92;;
55140;SDS011;41035;44.280;19.870;2022-09-27T14:44:26;5.50;;;2.85;;
55140;SDS011;41035;44.280;19.870;2022-09-27T14:49:45;8.60;;;4.80;;
55140;SDS011;41035;44.280;19.870;2022-09-27T14:57:26;11.27;;;5.25;;
55140;SDS011;41035;44.280;19.870;2022-09-27T14:59:53;8.20;;;4.70;;
55140;SDS011;41035;44.280;19.870;2022-09-27T15:02:30;9.90;;;6.30;;
55140;SDS011;41035;44.280;19.870;2022-09-27T15:04:57;16.02;;;10.93;;
55140;SDS011;41035;44.280;19.870;2022-09-27T15:07:23;31.27;;;10.90;;
55140;SDS011;41035;44.280;19.870;2022-09-27T15:09:51;37.25;;;15.20;;
55140;SDS011;41035;44.280;19.870;2022-09-27T15:12:21;18.92;;;7.63;;
55140;SDS011;41035;44.280;19.870;2022-09-27T15:14:50;18.90;;;7.78;;
55140;SDS011;41035;44.280;19.870;2022-09-27T15:20:31;21.13;;;9.52;;
55140;SDS011;41035;44.280;19.870;2022-09-27T15:22:40;12.00;;;7.55;;
55140;SDS011;41035;44.280;19.870;2022-09-27T15:27:52;24.25;;;13.38;;
55140;SDS011;41035;44.280;19.870;2022-09-27T15:30:23;16.20;;;9.75;;
55140;SDS011;41035;44.280;19.870;2022-09-27T15:32:53;15.93;;;8.07;;
55140;SDS011;41035;44.280;19.870;2022-09-27T15:35:30;12.18;;;7.03;;
55140;SDS011;41035;44.280;19.870;2022-09-27T15:43:12;35.20;;;16.92;;
55140;SDS011;41035;44.280;19.870;2022-09-27T15:45:50;36.30;;;21.58;;
55140;SDS011;41035;44.280;19.870;2022-09-27T15:48:17;28.67;;;16.63;;
55140;SDS011;41035;44.280;19.870;2022-09-27T15:50:44;30.33;;;17.92;;
55140;SDS011;41035;44.280;19.870;2022-09-27T15:53:11;34.65;;;23.25;;
55140;SDS011;41035;44.280;19.870;2022-09-27T15:55:41;36.10;;;24.95;;
55140;SDS011;41035;44.280;19.870;2022-09-27T15:58:15;45.72;;;27.27;;
55140;SDS011;41035;44.280;19.870;2022-09-27T16:00:50;52.53;;;34.05;;
55140;SDS011;41035;44.280;19.870;2022-09-27T16:03:16;55.30;;;31.35;;
55140;SDS011;41035;44.280;19.870;2022-09-27T16:05:42;51.17;;;24.48;;
55140;SDS011;41035;44.280;19.870;2022-09-27T16:08:12;36.58;;;20.20;;
55140;SDS011;41035;44.280;19.870;2022-09-27T16:10:38;48.83;;;24.17;;
55140;SDS011;41035;44.280;19.870;2022-09-27T16:13:05;69.30;;;35.50;;
55140;SDS011;41035;44.280;19.870;2022-09-27T16:15:32;61.83;;;32.75;;
55140;SDS011;41035;44.280;19.870;2022-09-27T16:17:58;56.58;;;28.65;;
55140;SDS011;41035;44.280;19.870;2022-09-27T16:20:25;39.83;;;20.73;;
55140;SDS011;41035;44.280;19.870;2022-09-27T16:22:52;39.38;;;21.60;;
55140;SDS011;41035;44.280;19.870;2022-09-27T16:25:19;45.25;;;17.27;;
55140;SDS011;41035;44.280;19.870;2022-09-27T16:27:46;32.65;;;19.95;;
55140;SDS011;41035;44.280;19.870;2022-09-27T16:30:12;24.27;;;13.13;;
55140;SDS011;41035;44.280;19.870;2022-09-27T16:32:40;26.02;;;12.25;;
55140;SDS011;41035;44.280;19.870;2022-09-27T16:35:08;33.90;;;13.10;;
55140;SDS011;41035;44.280;19.870;2022-09-27T16:37:34;30.58;;;13.73;;
55140;SDS011;41035;44.280;19.870;2022-09-27T16:40:01;25.45;;;11.25;;
55140;SDS011;41035;44.280;19.870;2022-09-27T16:42:27;31.83;;;11.95;;
55140;SDS011;41035;44.280;19.870;2022-09-27T16:44:53;27.98;;;14.23;;
55140;SDS011;41035;44.280;19.870;2022-09-27T16:47:19;44.30;;;19.27;;
55140;SDS011;41035;44.280;19.870;2022-09-27T16:49:45;79.93;;;38.92;;
55140;SDS011;41035;44.280;19.870;2022-09-27T16:52:30;139.35;;;67.60;;
55140;SDS011;41035;44.280;19.870;2022-09-27T16:54:57;128.32;;;67.72;;
55140;SDS011;41035;44.280;19.870;2022-09-27T16:57:23;145.02;;;72.53;;
55140;SDS011;41035;44.280;19.870;2022-09-27T16:59:50;174.52;;;78.75;;
55140;SDS011;41035;44.280;19.870;2022-09-27T17:02:17;264.13;;;118.68;;
55140;SDS011;41035;44.280;19.870;2022-09-27T17:04:43;177.10;;;84.38;;
55140;SDS011;41035;44.280;19.870;2022-09-27T17:07:10;176.57;;;85.30;;
55140;SDS011;41035;44.280;19.870;2022-09-27T17:09:37;165.38;;;82.63;;
55140;SDS011;41035;44.280;19.870;2022-09-27T17:12:04;175.27;;;86.63;;
55140;SDS011;41035;44.280;19.870;2022-09-27T17:14:30;118.53;;;62.03;;
55140;SDS011;41035;44.280;19.870;2022-09-27T17:16:56;177.00;;;100.10;;
55140;SDS011;41035;44.280;19.870;2022-09-27T17:19:23;94.47;;;55.97;;
55140;SDS011;41035;44.280;19.870;2022-09-27T17:21:51;89.18;;;52.80;;
55140;SDS011;41035;44.280;19.870;2022-09-27T17:24:19;91.32;;;46.90;;
55140;SDS011;41035;44.280;19.870;2022-09-27T17:26:52;82.47;;;45.45;;
55140;SDS011;41035;44.280;19.870;2022-09-27T17:29:36;78.03;;;45.55;;